Time;durP1;ratioP1;P1;durP2;ratioP2;P2;SDS_P1;SDS_P2;PMS_P1;PMS_P2;Temp;Humidity;BMP_temperature;BMP_pressure;BME280_temperature;BME280_humidity;BME280_pressure;Samples;Min_cycle;Max_cycle;Signal;HPM_P1;HPM_P2
2021/12/23 00:00:34;;;;;;;6.57;4.88;;;-4.30;67.00;;;;;;5076272;28;20040;-57
2021/12/23 00:03:00;;;;;;;7.15;4.55;;;-4.30;66.80;;;;;;5074957;28;20021;-56
2021/12/23 00:05:26;;;;;;;7.82;5.22;;;-4.30;66.70;;;;;;5079571;28;20036;-53
2021/12/23 00:07:51;;;;;;;6.60;5.40;;;-4.30;66.60;;;;;;5089694;28;20388;-52
2021/12/23 00:10:17;;;;;;;7.47;4.63;;;-4.30;66.70;;;;;;5077017;28;20021;-52
2021/12/23 00:12:45;;;;;;;6.90;4.30;;;-4.30;66.50;;;;;;5081981;28;20037;-53
2021/12/23 00:15:31;;;;;;;6.05;3.95;;;-4.30;66.30;;;;;;5080431;28;20020;-56
2021/12/23 00:25:37;;;;;;;5.70;4.28;;;-4.30;65.70;;;;;;5075793;28;20128;-55
2021/12/23 00:28:03;;;;;;;6.82;5.20;;;-4.30;65.70;;;;;;5077903;28;20408;-55
2021/12/23 00:30:29;;;;;;;11.68;5.97;;;-4.30;65.80;;;;;;5086458;28;20067;-54
2021/12/23 00:32:57;;;;;;;7.47;5.13;;;-4.30;65.80;;;;;;5087792;28;20059;-56
2021/12/23 00:35:23;;;;;;;9.70;5.90;;;-4.20;65.60;;;;;;5073891;28;20378;-52
2021/12/23 00:37:55;;;;;;;8.30;5.13;;;-4.30;65.50;;;;;;5083131;28;20448;-55
2021/12/23 00:40:21;;;;;;;7.45;4.75;;;-4.20;65.40;;;;;;5087866;28;20028;-56
2021/12/23 00:42:47;;;;;;;6.13;4.55;;;-4.20;65.40;;;;;;5082887;28;20078;-54
2021/12/23 00:45:12;;;;;;;6.78;4.78;;;-4.20;65.40;;;;;;5086765;28;20107;-56
2021/12/23 00:47:38;;;;;;;5.30;4.38;;;-4.20;65.30;;;;;;5076582;28;20048;-54
2021/12/23 00:50:04;;;;;;;5.65;4.30;;;-4.20;65.20;;;;;;5081559;28;20032;-56
2021/12/23 00:52:34;;;;;;;6.30;4.57;;;-4.20;65.10;;;;;;5085565;28;20103;-57
2021/12/23 00:55:01;;;;;;;6.20;4.60;;;-4.20;65.20;;;;;;5075247;28;20028;-54
2021/12/23 00:57:28;;;;;;;5.90;4.63;;;-4.10;65.20;;;;;;5086207;28;20024;-54
2021/12/23 00:59:55;;;;;;;6.13;4.60;;;-4.10;65.10;;;;;;5090581;28;20421;-52
2021/12/23 01:02:28;;;;;;;5.35;4.30;;;-4.10;64.80;;;;;;5081360;28;20445;-56
2021/12/23 01:04:55;;;;;;;4.82;4.35;;;-4.20;64.80;;;;;;5084895;28;20384;-54
2021/12/23 01:07:20;;;;;;;7.35;4.95;;;-4.20;64.60;;;;;;5079279;28;20023;-55
2021/12/23 01:09:46;;;;;;;5.25;4.10;;;-4.20;64.70;;;;;;5084021;28;20473;-55
2021/12/23 01:12:14;;;;;;;4.90;4.38;;;-4.20;64.60;;;;;;5074720;28;20036;-56
2021/12/23 01:14:55;;;;;;;5.13;3.97;;;-4.20;64.60;;;;;;5083521;28;20373;-54
2021/12/23 01:17:31;;;;;;;5.72;4.35;;;-4.20;65.20;;;;;;5080715;28;20029;-54
2021/12/23 01:20:00;;;;;;;5.30;4.32;;;-4.20;64.60;;;;;;5078406;28;20028;-56
2021/12/23 01:22:26;;;;;;;6.18;4.53;;;-4.20;64.60;;;;;;5083484;28;20040;-52
2021/12/23 01:24:52;;;;;;;6.85;4.68;;;-4.20;64.50;;;;;;5075507;28;20024;-54
2021/12/23 01:27:17;;;;;;;6.97;4.93;;;-4.20;64.60;;;;;;5084316;28;20495;-55
2021/12/23 01:29:43;;;;;;;4.75;4.07;;;-4.20;64.60;;;;;;5087661;28;20032;-54
2021/12/23 01:32:09;;;;;;;6.45;4.47;;;-4.20;64.60;;;;;;5088428;28;20483;-56
2021/12/23 01:34:35;;;;;;;4.53;4.00;;;-4.20;64.60;;;;;;5093490;28;20020;-55
2021/12/23 01:37:02;;;;;;;5.97;4.80;;;-4.30;64.40;;;;;;5087591;28;20081;-56
2021/12/23 01:39:28;;;;;;;10.45;5.55;;;-4.30;64.40;;;;;;5087525;28;20039;-55
2021/12/23 01:41:54;;;;;;;10.48;5.90;;;-4.30;64.20;;;;;;5085302;28;20032;-56
2021/12/23 01:44:20;;;;;;;8.45;5.22;;;-4.30;64.30;;;;;;5087178;28;20475;-55
2021/12/23 01:46:46;;;;;;;12.32;5.80;;;-4.30;64.40;;;;;;5079363;28;20407;-55
2021/12/23 01:49:11;;;;;;;12.02;7.63;;;-4.30;64.50;;;;;;5084410;28;20045;-54
2021/12/23 01:51:37;;;;;;;9.75;6.05;;;-4.40;64.40;;;;;;5078504;28;20106;-53
2021/12/23 01:54:03;;;;;;;9.95;6.40;;;-4.40;64.40;;;;;;5077936;28;20407;-55
2021/12/23 01:56:30;;;;;;;7.82;5.53;;;-4.40;64.40;;;;;;5084156;28;20038;-55
2021/12/23 01:58:55;;;;;;;9.65;5.95;;;-4.40;64.40;;;;;;5079346;28;20036;-55
2021/12/23 02:01:21;;;;;;;6.80;4.65;;;-4.40;64.40;;;;;;5083294;28;20032;-53
2021/12/23 02:03:47;;;;;;;7.22;4.80;;;-4.40;64.30;;;;;;5081830;28;21779;-56
2021/12/23 02:06:13;;;;;;;5.43;3.75;;;-4.40;64.40;;;;;;5093037;28;20032;-57
2021/12/23 02:08:39;;;;;;;5.00;3.92;;;-4.40;64.10;;;;;;5084432;28;20533;-52
2021/12/23 02:11:08;;;;;;;4.68;4.07;;;-4.40;64.10;;;;;;5081234;28;20052;-55
2021/12/23 02:13:35;;;;;;;3.83;3.50;;;-4.40;63.90;;;;;;5083077;28;20107;-54
2021/12/23 02:16:02;;;;;;;5.13;4.07;;;-4.50;63.70;;;;;;5084069;28;20031;-52
2021/12/23 02:18:28;;;;;;;4.95;4.00;;;-4.50;63.50;;;;;;5074999;28;20104;-54
2021/12/23 02:20:54;;;;;;;4.68;3.90;;;-4.50;63.30;;;;;;5083707;28;20082;-55
2021/12/23 02:23:21;;;;;;;4.28;3.50;;;-4.50;63.20;;;;;;5083341;28;20048;-53
2021/12/23 02:25:46;;;;;;;4.15;3.63;;;-4.50;62.50;;;;;;5082387;28;20028;-55
2021/12/23 02:28:18;;;;;;;8.93;3.90;;;-4.50;62.00;;;;;;5075220;28;20034;-52
2021/12/23 02:30:44;;;;;;;4.45;3.88;;;-4.60;62.10;;;;;;5077173;28;20123;-54
2021/12/23 02:33:11;;;;;;;5.90;3.70;;;-4.60;61.90;;;;;;5078442;28;20033;-52
2021/12/23 02:35:37;;;;;;;4.57;3.65;;;-4.60;61.70;;;;;;5080749;28;20024;-56
2021/12/23 02:38:04;;;;;;;4.30;3.25;;;-4.60;61.90;;;;;;5076425;28;20106;-53
2021/12/23 02:40:39;;;;;;;5.25;3.53;;;-4.60;61.60;;;;;;5075399;28;20032;-54
2021/12/23 02:43:22;;;;;;;4.03;3.53;;;-4.60;61.70;;;;;;5081220;28;20025;-53
2021/12/23 02:45:51;;;;;;;3.95;3.55;;;-4.60;61.80;;;;;;5077517;28;20029;-55
2021/12/23 02:48:27;;;;;;;4.35;3.92;;;-4.60;62.00;;;;;;5084123;28;20118;-53
2021/12/23 02:50:54;;;;;;;7.20;3.75;;;-4.50;62.00;;;;;;5074915;28;20020;-53
2021/12/23 02:53:21;;;;;;;3.97;3.50;;;-4.50;62.00;;;;;;5077029;28;20020;-56
2021/12/23 02:55:47;;;;;;;4.13;3.58;;;-4.50;62.10;;;;;;5088709;28;20024;-54
2021/12/23 02:58:13;;;;;;;4.28;3.40;;;-4.50;62.10;;;;;;5085983;28;20028;-57
2021/12/23 03:00:41;;;;;;;5.07;3.30;;;-4.50;62.10;;;;;;5085749;28;20035;-55
2021/12/23 03:03:06;;;;;;;4.25;3.42;;;-4.50;62.20;;;;;;5077291;28;20036;-53
2021/12/23 03:05:32;;;;;;;3.75;3.45;;;-4.50;62.20;;;;;;5088011;28;20111;-54
2021/12/23 03:08:01;;;;;;;4.22;3.63;;;-4.50;62.20;;;;;;5074341;28;20119;-53
2021/12/23 03:10:27;;;;;;;3.95;3.42;;;-4.40;62.20;;;;;;5079606;28;20031;-53
2021/12/23 03:12:52;;;;;;;4.13;3.55;;;-4.40;62.30;;;;;;5083244;28;20383;-56
2021/12/23 03:15:18;;;;;;;4.65;3.97;;;-4.40;62.30;;;;;;5086052;28;20025;-52
2021/12/23 03:17:44;;;;;;;5.68;4.13;;;-4.30;62.10;;;;;;5082349;28;20024;-56
2021/12/23 03:20:10;;;;;;;4.97;3.83;;;-4.30;61.90;;;;;;5085121;28;20024;-52
2021/12/23 03:22:36;;;;;;;8.98;5.80;;;-4.30;62.50;;;;;;5074328;28;20040;-54
2021/12/23 03:25:02;;;;;;;11.85;7.68;;;-4.30;61.70;;;;;;5079000;28;20023;-55
2021/12/23 03:27:28;;;;;;;7.90;5.82;;;-4.30;61.70;;;;;;5081565;28;20058;-56
2021/12/23 03:29:56;;;;;;;8.13;5.07;;;-4.20;61.60;;;;;;5081863;28;20114;-55
2021/12/23 03:32:22;;;;;;;8.05;5.28;;;-4.20;61.50;;;;;;5075432;28;20048;-54
2021/12/23 03:34:48;;;;;;;5.68;4.45;;;-4.20;61.60;;;;;;5080832;28;20021;-53
2021/12/23 03:37:14;;;;;;;7.57;4.50;;;-4.20;61.40;;;;;;5075217;28;20522;-56
2021/12/23 03:39:39;;;;;;;5.95;4.53;;;-4.10;61.50;;;;;;5077491;28;20547;-53
2021/12/23 03:42:06;;;;;;;6.97;4.07;;;-4.10;61.50;;;;;;5079081;28;20024;-54
2021/12/23 03:44:31;;;;;;;5.78;4.20;;;-4.10;61.50;;;;;;5083346;28;20036;-57
2021/12/23 03:46:57;;;;;;;6.70;4.95;;;-4.10;61.40;;;;;;5080686;28;20495;-53
2021/12/23 03:49:23;;;;;;;4.78;4.00;;;-4.10;61.30;;;;;;5090795;28;20045;-53
2021/12/23 03:51:48;;;;;;;5.80;5.20;;;-4.10;61.30;;;;;;5079978;28;20430;-54
2021/12/23 03:54:14;;;;;;;6.50;4.90;;;-4.10;61.20;;;;;;5090993;28;20020;-53
2021/12/23 03:56:40;;;;;;;7.38;4.85;;;-4.10;61.40;;;;;;5078734;28;20460;-54
2021/12/23 03:59:05;;;;;;;6.35;4.35;;;-4.10;61.50;;;;;;5084549;28;20032;-56
2021/12/23 04:01:31;;;;;;;6.57;5.10;;;-4.20;61.60;;;;;;5073890;28;20041;-54
2021/12/23 04:03:57;;;;;;;5.78;4.53;;;-4.20;61.80;;;;;;5085674;28;20048;-56
2021/12/23 04:06:25;;;;;;;7.05;5.15;;;-4.20;61.80;;;;;;5073349;28;20082;-55
2021/12/23 04:08:50;;;;;;;5.78;4.50;;;-4.20;62.00;;;;;;5079371;28;20025;-56
2021/12/23 04:11:16;;;;;;;4.63;4.05;;;-4.20;62.00;;;;;;5085853;28;20111;-55
2021/12/23 04:13:42;;;;;;;7.00;5.10;;;-4.20;62.00;;;;;;5081506;28;20074;-53
2021/12/23 04:16:07;;;;;;;9.57;5.97;;;-4.20;62.20;;;;;;5085554;28;20095;-57
2021/12/23 04:18:33;;;;;;;5.40;4.82;;;-4.20;62.40;;;;;;5085252;28;20055;-53
2021/12/23 04:20:59;;;;;;;6.68;5.13;;;-4.20;62.60;;;;;;5076452;28;20024;-53
2021/12/23 04:23:27;;;;;;;9.18;7.15;;;-4.10;62.60;;;;;;5079646;28;20052;-54
2021/12/23 04:25:54;;;;;;;7.30;5.50;;;-4.10;62.80;;;;;;5074559;28;20064;-52
2021/12/23 04:28:20;;;;;;;8.15;6.57;;;-4.00;62.80;;;;;;5086677;28;20046;-53
2021/12/23 04:30:47;;;;;;;8.25;5.75;;;-3.90;62.80;;;;;;5088435;28;20483;-56
2021/12/23 04:33:13;;;;;;;7.78;5.50;;;-3.90;62.80;;;;;;5089555;28;20039;-53
2021/12/23 04:35:38;;;;;;;8.38;6.20;;;-3.90;62.70;;;;;;5087774;28;20035;-57
2021/12/23 04:38:05;;;;;;;7.15;5.35;;;-3.90;62.60;;;;;;5082521;28;20153;-54
2021/12/23 04:40:34;;;;;;;6.93;4.97;;;-3.80;62.70;;;;;;5075352;28;20494;-57
2021/12/23 04:43:01;;;;;;;8.73;6.15;;;-3.90;62.60;;;;;;5078534;28;20050;-54
2021/12/23 04:45:26;;;;;;;8.95;6.35;;;-3.90;62.60;;;;;;5079962;28;20456;-53
2021/12/23 04:47:52;;;;;;;6.90;5.63;;;-3.90;62.50;;;;;;5083045;28;20069;-53
2021/12/23 04:50:18;;;;;;;8.13;5.35;;;-3.90;62.60;;;;;;5088413;28;20031;-55
2021/12/23 04:52:44;;;;;;;6.63;5.13;;;-4.00;62.60;;;;;;5092252;28;20360;-53
2021/12/23 04:55:12;;;;;;;12.18;6.25;;;-4.00;62.80;;;;;;5084341;28;20025;-53
2021/12/23 04:57:37;;;;;;;8.07;5.90;;;-4.00;62.80;;;;;;5076070;28;20524;-52
2021/12/23 05:00:10;;;;;;;10.88;6.50;;;-4.00;62.90;;;;;;5081495;28;20103;-57
2021/12/23 05:02:36;;;;;;;9.55;5.90;;;-4.00;63.10;;;;;;5082767;28;20024;-55
2021/12/23 05:05:02;;;;;;;7.32;5.47;;;-4.10;63.10;;;;;;5079689;28;20055;-55
2021/12/23 05:07:27;;;;;;;8.32;6.65;;;-4.10;63.10;;;;;;5080825;28;20074;-53
2021/12/23 05:09:53;;;;;;;7.97;5.30;;;-4.00;63.10;;;;;;5081471;28;20020;-55
2021/12/23 05:12:19;;;;;;;7.15;5.60;;;-4.00;63.10;;;;;;5083839;28;20419;-53
2021/12/23 05:14:44;;;;;;;8.13;5.72;;;-4.10;63.10;;;;;;5077183;28;20078;-54
2021/12/23 05:17:10;;;;;;;10.23;6.00;;;-4.00;63.90;;;;;;5087586;28;20020;-53
2021/12/23 05:19:36;;;;;;;7.80;6.05;;;-4.00;63.40;;;;;;5080923;28;20094;-52
2021/12/23 05:22:01;;;;;;;7.75;5.55;;;-4.00;63.40;;;;;;5083834;28;20055;-52
2021/12/23 05:24:27;;;;;;;7.43;5.72;;;-4.10;63.50;;;;;;5083703;28;20055;-54
2021/12/23 05:26:53;;;;;;;7.90;5.15;;;-4.10;63.50;;;;;;5081900;28;20476;-55
2021/12/23 05:29:19;;;;;;;7.05;5.70;;;-4.00;63.70;;;;;;5086618;28;20032;-52
2021/12/23 05:31:44;;;;;;;8.90;6.13;;;-4.00;63.80;;;;;;5082039;28;20016;-56
2021/12/23 05:34:10;;;;;;;9.32;7.75;;;-4.00;63.80;;;;;;5090337;28;20024;-53
2021/12/23 05:36:36;;;;;;;10.52;8.32;;;-4.00;63.80;;;;;;5083777;28;20031;-54
2021/12/23 05:39:03;;;;;;;10.02;6.22;;;-3.90;63.90;;;;;;5077353;28;20032;-54
2021/12/23 05:41:28;;;;;;;9.50;7.05;;;-4.00;63.90;;;;;;5078442;28;20471;-54
2021/12/23 05:43:58;;;;;;;10.52;6.90;;;-4.00;64.00;;;;;;5081656;28;20051;-57
2021/12/23 05:46:24;;;;;;;11.20;7.28;;;-4.00;64.10;;;;;;5090538;28;20456;-56
2021/12/23 05:48:50;;;;;;;11.18;7.07;;;-3.90;64.20;;;;;;5086363;28;20028;-57
2021/12/23 05:51:16;;;;;;;11.70;8.65;;;-3.90;64.10;;;;;;5080123;28;20560;-52
2021/12/23 05:53:41;;;;;;;9.10;6.10;;;-3.90;64.10;;;;;;5081736;28;20028;-54
2021/12/23 05:56:07;;;;;;;7.80;6.10;;;-3.90;64.10;;;;;;5080575;28;20471;-55
2021/12/23 05:58:33;;;;;;;10.27;6.28;;;-3.90;64.00;;;;;;5077557;28;20037;-56
2021/12/23 06:00:59;;;;;;;8.45;5.43;;;-3.90;63.90;;;;;;5084779;28;20434;-55
2021/12/23 06:03:25;;;;;;;8.63;6.60;;;-3.90;63.80;;;;;;5084980;28;20037;-54
2021/12/23 06:05:51;;;;;;;8.18;5.53;;;-3.90;63.80;;;;;;5083835;28;20409;-52
2021/12/23 06:08:17;;;;;;;8.80;5.97;;;-4.00;63.70;;;;;;5080389;28;20059;-54
2021/12/23 06:10:43;;;;;;;8.93;6.85;;;-4.00;63.80;;;;;;5080458;28;20105;-56
2021/12/23 06:13:09;;;;;;;9.95;7.55;;;-4.00;64.10;;;;;;5082249;28;20028;-53
2021/12/23 06:15:35;;;;;;;9.73;5.80;;;-4.00;64.00;;;;;;5083232;28;20095;-52
2021/12/23 06:18:01;;;;;;;8.55;7.22;;;-4.00;64.00;;;;;;5087151;28;20039;-54
2021/12/23 06:20:26;;;;;;;9.38;6.13;;;-4.00;64.10;;;;;;5081375;28;20078;-56
2021/12/23 06:22:52;;;;;;;7.55;5.72;;;-4.00;64.10;;;;;;5083217;28;20045;-53
2021/12/23 06:25:18;;;;;;;10.57;7.53;;;-4.00;64.20;;;;;;5082299;28;20538;-56
2021/12/23 06:27:44;;;;;;;10.48;6.45;;;-4.00;64.20;;;;;;5079617;28;20029;-55
2021/12/23 06:30:14;;;;;;;11.25;7.43;;;-3.90;64.10;;;;;;5082528;28;20686;-56
2021/12/23 06:32:40;;;;;;;12.35;7.78;;;-3.90;64.10;;;;;;5077985;28;20020;-55
2021/12/23 06:35:06;;;;;;;8.73;5.53;;;-3.90;64.00;;;;;;5078478;28;20051;-55
2021/12/23 06:37:32;;;;;;;8.00;5.78;;;-3.90;64.00;;;;;;5075959;28;20020;-53
2021/12/23 06:39:58;;;;;;;9.50;5.65;;;-3.90;64.00;;;;;;5080988;28;20044;-54
2021/12/23 06:42:23;;;;;;;9.70;6.60;;;-4.00;63.90;;;;;;5084421;28;20770;-53
2021/12/23 06:44:49;;;;;;;10.45;7.15;;;-4.00;64.10;;;;;;5077755;28;20021;-54
2021/12/23 06:47:15;;;;;;;7.97;6.05;;;-4.00;64.00;;;;;;5076231;28;20039;-55
2021/12/23 06:49:40;;;;;;;9.15;7.18;;;-4.00;64.00;;;;;;5078189;28;20034;-52
2021/12/23 06:52:06;;;;;;;10.82;7.22;;;-4.00;64.00;;;;;;5080987;28;20024;-56
2021/12/23 06:54:32;;;;;;;10.38;6.82;;;-4.00;63.90;;;;;;5079798;28;20020;-53
2021/12/23 06:56:57;;;;;;;9.65;6.72;;;-3.90;63.90;;;;;;5077223;28;20043;-53
2021/12/23 06:59:23;;;;;;;10.10;6.40;;;-4.00;63.90;;;;;;5084893;28;20114;-57
2021/12/23 07:01:49;;;;;;;9.82;6.50;;;-4.00;64.00;;;;;;5081174;28;20503;-53
2021/12/23 07:04:18;;;;;;;9.02;7.28;;;-3.90;64.10;;;;;;5081896;28;20353;-57
2021/12/23 07:06:48;;;;;;;10.98;6.32;;;-3.90;64.10;;;;;;5076105;28;20037;-56
2021/12/23 07:09:15;;;;;;;8.95;5.78;;;-3.80;64.00;;;;;;5075909;28;20032;-58
2021/12/23 07:11:40;;;;;;;10.25;6.90;;;-3.80;63.90;;;;;;5076017;28;20020;-58
2021/12/23 07:14:06;;;;;;;11.07;6.78;;;-3.80;64.00;;;;;;5074687;28;20674;-54
2021/12/23 07:16:32;;;;;;;9.73;6.63;;;-3.80;64.10;;;;;;5075558;28;20024;-59
2021/12/23 07:18:58;;;;;;;10.18;7.30;;;-3.80;63.80;;;;;;5075465;28;20046;-58
2021/12/23 07:21:23;;;;;;;9.95;7.22;;;-3.80;63.90;;;;;;5074888;28;20032;-55
2021/12/23 07:23:49;;;;;;;9.80;7.70;;;-3.70;63.90;;;;;;5068635;28;20666;-57
2021/12/23 07:26:17;;;;;;;11.82;8.25;;;-3.70;64.00;;;;;;5072290;28;20025;-58
2021/12/23 07:28:43;;;;;;;11.13;7.38;;;-3.70;64.00;;;;;;5070548;28;20036;-53
2021/12/23 07:31:09;;;;;;;15.30;8.90;;;-3.70;64.50;;;;;;5065599;28;20035;-58
2021/12/23 07:33:35;;;;;;;10.65;7.80;;;-3.70;63.80;;;;;;5065962;28;20063;-59
2021/12/23 07:36:03;;;;;;;13.95;7.38;;;-3.70;63.70;;;;;;5068322;28;20116;-59
2021/12/23 07:38:31;;;;;;;7.60;5.95;;;-3.70;63.80;;;;;;5056082;28;20381;-59
2021/12/23 07:40:57;;;;;;;8.80;6.95;;;-3.70;64.00;;;;;;5061557;28;20111;-59
2021/12/23 07:46:02;;;;;;;8.68;6.80;;;-3.70;63.70;;;;;;5069518;28;20081;-59
2021/12/23 07:48:28;;;;;;;7.80;6.13;;;-3.70;63.60;;;;;;5070487;28;20055;-58
2021/12/23 07:50:54;;;;;;;8.48;6.40;;;-3.60;63.60;;;;;;5074068;28;20472;-58
2021/12/23 07:53:20;;;;;;;8.05;6.32;;;-3.60;63.70;;;;;;5069119;28;20072;-59
2021/12/23 07:55:46;;;;;;;9.23;6.88;;;-3.60;63.50;;;;;;5066212;28;20540;-57
2021/12/23 07:58:12;;;;;;;9.68;7.40;;;-3.50;63.50;;;;;;5070261;28;20032;-56
2021/12/23 08:00:38;;;;;;;8.82;6.85;;;-3.50;63.70;;;;;;5069258;28;20028;-55
2021/12/23 08:03:03;;;;;;;9.77;6.45;;;-3.50;63.40;;;;;;5065439;28;20047;-60
2021/12/23 08:05:33;;;;;;;7.60;6.35;;;-3.50;63.40;;;;;;5066255;28;20036;-59
2021/12/23 08:07:59;;;;;;;6.35;5.10;;;-3.50;63.20;;;;;;5057401;28;20040;-57
2021/12/23 08:10:25;;;;;;;8.45;6.85;;;-3.40;63.00;;;;;;5060568;28;20084;-57
2021/12/23 08:12:51;;;;;;;9.00;6.93;;;-3.40;63.20;;;;;;5065022;28;20029;-58
2021/12/23 08:15:16;;;;;;;7.63;6.05;;;-3.40;63.20;;;;;;5057649;28;20110;-58
2021/12/23 08:17:42;;;;;;;8.13;6.22;;;-3.30;62.90;;;;;;5060001;28;20052;-59
2021/12/23 08:20:09;;;;;;;9.50;7.70;;;-3.30;62.70;;;;;;5057206;28;20036;-55
2021/12/23 08:22:35;;;;;;;8.02;5.93;;;-3.30;62.60;;;;;;5056762;28;20024;-58
2021/12/23 08:25:01;;;;;;;6.65;5.60;;;-3.30;62.50;;;;;;5059732;28;22788;-58
2021/12/23 08:27:33;;;;;;;8.05;5.82;;;-3.20;62.90;;;;;;5063057;28;20063;-60
2021/12/23 08:29:58;;;;;;;7.60;6.03;;;-3.20;62.70;;;;;;5062864;28;20115;-59
2021/12/23 08:32:24;;;;;;;7.90;6.53;;;-3.20;62.50;;;;;;5059268;28;20031;-58
2021/12/23 08:34:50;;;;;;;7.00;5.47;;;-3.20;62.40;;;;;;5068444;28;20032;-58
2021/12/23 08:37:16;;;;;;;8.48;6.30;;;-3.10;62.30;;;;;;5072100;28;20035;-58
2021/12/23 08:39:43;;;;;;;8.82;6.00;;;-3.20;62.10;;;;;;5068058;28;23826;-58
2021/12/23 08:42:09;;;;;;;8.48;6.70;;;-3.20;62.00;;;;;;5069024;28;20036;-58
2021/12/23 08:44:36;;;;;;;10.23;6.43;;;-3.20;61.80;;;;;;5072833;28;20551;-57
2021/12/23 08:47:02;;;;;;;9.55;5.68;;;-3.20;61.70;;;;;;5066327;28;20157;-57
2021/12/23 08:49:27;;;;;;;8.88;6.97;;;-3.30;61.70;;;;;;5072949;28;20037;-58
2021/12/23 08:51:53;;;;;;;9.30;7.38;;;-3.30;61.60;;;;;;5070760;28;20126;-57
2021/12/23 08:54:19;;;;;;;8.68;7.05;;;-3.30;61.60;;;;;;5067228;28;20039;-58
2021/12/23 08:56:45;;;;;;;6.95;5.07;;;-3.30;61.40;;;;;;5067157;28;20028;-59
2021/12/23 08:59:11;;;;;;;7.95;6.25;;;-3.40;61.40;;;;;;5065743;28;20043;-58
2021/12/23 09:01:38;;;;;;;10.23;7.20;;;-3.30;61.60;;;;;;5058354;28;20055;-58
2021/12/23 09:04:04;;;;;;;9.00;6.45;;;-3.30;61.60;;;;;;5055390;28;20597;-59
2021/12/23 09:06:29;;;;;;;8.13;6.30;;;-3.30;61.40;;;;;;5064069;28;20032;-55
2021/12/23 09:08:55;;;;;;;7.28;6.40;;;-3.30;61.10;;;;;;5062561;28;20032;-58
2021/12/23 09:11:22;;;;;;;8.60;6.38;;;-3.30;61.10;;;;;;5060601;28;20039;-58
2021/12/23 09:13:48;;;;;;;9.23;7.13;;;-3.30;60.90;;;;;;5066794;28;20490;-57
2021/12/23 09:16:13;;;;;;;8.82;6.45;;;-3.30;60.90;;;;;;5061673;28;20036;-57
2021/12/23 09:18:39;;;;;;;7.88;6.28;;;-3.30;60.90;;;;;;5056682;28;20050;-59
2021/12/23 09:21:05;;;;;;;10.77;6.70;;;-3.30;60.80;;;;;;5056488;28;20119;-59
2021/12/23 09:23:30;;;;;;;7.30;5.78;;;-3.20;60.80;;;;;;5067992;28;20055;-60
2021/12/23 09:25:56;;;;;;;7.65;6.45;;;-3.20;60.60;;;;;;5064609;28;20117;-60
2021/12/23 09:33:37;;;;;;;7.45;5.93;;;-3.10;60.10;;;;;;5063474;28;20040;-60
2021/12/23 09:36:03;;;;;;;8.95;6.63;;;-3.10;59.90;;;;;;5059406;28;20047;-59
2021/12/23 09:38:29;;;;;;;7.40;6.10;;;-3.10;59.60;;;;;;5056123;28;20530;-61
2021/12/23 09:41:11;;;;;;;8.18;6.15;;;-3.10;59.20;;;;;;5064616;28;20142;-59
2021/12/23 09:43:39;;;;;;;7.95;6.32;;;-3.10;58.90;;;;;;5067397;28;20485;-58
2021/12/23 09:46:06;;;;;;;7.75;5.75;;;-3.20;58.80;;;;;;5062083;28;20119;-59
2021/12/23 09:48:33;;;;;;;7.32;6.47;;;-3.20;58.80;;;;;;5056080;28;20028;-59
2021/12/23 09:51:02;;;;;;;6.78;5.80;;;-3.20;58.70;;;;;;5053775;28;20055;-58
2021/12/23 09:53:31;;;;;;;6.47;5.35;;;-3.20;58.40;;;;;;5065357;28;20188;-58
2021/12/23 09:55:59;;;;;;;7.72;5.85;;;-3.20;58.40;;;;;;5059752;28;20025;-57
2021/12/23 09:58:25;;;;;;;9.02;6.40;;;-3.30;58.80;;;;;;5066897;28;20066;-60
2021/12/23 10:00:52;;;;;;;8.02;6.80;;;-3.30;58.10;;;;;;5055848;28;20040;-58
2021/12/23 10:03:20;;;;;;;8.23;6.95;;;-3.30;58.30;;;;;;5058054;28;20036;-56
2021/12/23 10:05:46;;;;;;;10.77;7.05;;;-3.30;58.30;;;;;;5052700;28;20028;-59
2021/12/23 10:08:13;;;;;;;9.13;6.35;;;-3.30;58.30;;;;;;5060001;28;20388;-59
2021/12/23 10:10:46;;;;;;;7.88;6.18;;;-3.30;58.20;;;;;;5048953;28;20767;-56
2021/12/23 10:38:45;;;;;;;7.15;5.47;;;-3.20;57.80;;;;;;5062589;28;20028;-60
2021/12/23 10:41:15;;;;;;;7.40;5.47;;;-3.20;57.80;;;;;;5059948;28;20047;-59
2021/12/23 10:43:44;;;;;;;7.50;5.80;;;-3.20;57.70;;;;;;5059542;28;20683;-60
2021/12/23 10:46:11;;;;;;;8.25;6.40;;;-3.20;57.40;;;;;;5064724;28;20392;-58
2021/12/23 10:49:03;;;;;;;10.38;6.50;;;-3.20;57.40;;;;;;5072581;28;20067;-60
2021/12/23 10:52:06;;;;;;;7.45;5.93;;;-3.10;57.50;;;;;;5084320;28;20060;-60
2021/12/23 11:00:24;;;;;;;9.50;6.88;;;-3.00;57.50;;;;;;5052407;28;20081;-59
2021/12/23 11:03:06;;;;;;;10.82;7.40;;;-2.90;57.40;;;;;;5061967;28;20021;-59
2021/12/23 11:05:37;;;;;;;;;;;-2.90;56.90;;;;;;5066139;28;20537;-57
2021/12/23 11:08:16;;;;;;;12.10;7.18;;;-2.90;56.80;;;;;;5061046;28;19927;-57
2021/12/23 11:27:35;;;;;;;11.38;7.18;;;-2.80;56.20;;;;;;5077960;28;20791;-58
2021/12/23 11:43:57;;;;;;;12.88;8.90;;;-2.70;56.30;;;;;;5057595;28;20044;-58
2021/12/23 11:46:26;;;;;;;11.52;7.68;;;-2.70;56.10;;;;;;5071245;28;20404;-58
2021/12/23 11:48:54;;;;;;;10.23;8.00;;;-2.70;56.00;;;;;;5068551;28;20068;-58
2021/12/23 11:51:31;;;;;;;11.63;8.95;;;-2.70;55.80;;;;;;5062797;28;20032;-56
2021/12/23 11:53:59;;;;;;;10.02;7.68;;;-2.60;55.80;;;;;;5072362;28;20089;-58
2021/12/23 11:56:25;;;;;;;14.60;9.07;;;-2.60;55.60;;;;;;5075319;28;20391;-59
2021/12/23 11:58:55;;;;;;;11.25;8.85;;;-2.60;55.60;;;;;;5070277;28;20444;-58
2021/12/23 12:01:28;;;;;;;15.48;9.85;;;-2.60;55.70;;;;;;5070804;28;20024;-59
2021/12/23 12:03:54;;;;;;;13.88;8.90;;;-2.60;55.50;;;;;;5068309;28;20036;-58
2021/12/23 12:06:23;;;;;;;10.07;8.35;;;-2.60;55.50;;;;;;5063466;28;20040;-53
2021/12/23 12:08:53;;;;;;;12.48;9.13;;;-2.60;55.50;;;;;;5058717;28;20170;-57
2021/12/23 12:11:21;;;;;;;13.80;9.98;;;-2.60;55.50;;;;;;5067669;28;20037;-56
2021/12/23 12:13:48;;;;;;;13.48;9.60;;;-2.70;55.40;;;;;;5068593;28;20069;-58
2021/12/23 12:16:33;;;;;;;14.32;10.15;;;-2.70;55.40;;;;;;5059965;28;20036;-59
2021/12/23 12:18:59;;;;;;;14.60;10.25;;;-2.70;55.30;;;;;;5066910;28;20902;-59
2021/12/23 12:21:32;;;;;;;13.20;9.80;;;-2.70;55.50;;;;;;5065693;28;20036;-58
2021/12/23 12:24:16;;;;;;;16.00;10.15;;;-2.70;55.40;;;;;;5065641;28;20122;-58
2021/12/23 12:26:57;;;;;;;14.25;9.43;;;-2.70;55.40;;;;;;5067275;28;20057;-59
2021/12/23 12:29:34;;;;;;;12.15;8.90;;;-2.80;55.30;;;;;;5059707;28;20054;-59
2021/12/23 12:32:00;;;;;;;18.85;10.48;;;-2.80;55.40;;;;;;5061569;28;20040;-60
2021/12/23 12:34:37;;;;;;;14.15;10.75;;;-2.80;55.40;;;;;;5061550;28;20063;-59
2021/12/23 12:37:07;;;;;;;12.00;8.82;;;-2.70;55.30;;;;;;5064999;28;20028;-60
2021/12/23 12:39:45;;;;;;;14.27;7.57;;;-2.70;55.20;;;;;;5066839;28;20535;-58
2021/12/23 12:42:29;;;;;;;13.13;8.13;;;-2.80;55.20;;;;;;5067491;28;20032;-58
2021/12/23 12:45:07;;;;;;;10.60;6.95;;;-2.80;55.50;;;;;;5062856;28;20143;-55
2021/12/23 12:47:37;;;;;;;12.30;7.40;;;-2.80;55.50;;;;;;5064023;28;20421;-58
2021/12/23 12:50:32;;;;;;;11.80;7.68;;;-2.80;55.60;;;;;;5069601;28;20049;-58
2021/12/23 12:53:05;;;;;;;10.38;7.03;;;-2.80;55.70;;;;;;5059562;28;20131;-58
2021/12/23 12:55:31;;;;;;;9.63;6.35;;;-2.80;55.80;;;;;;5061053;28;20028;-59
2021/12/23 12:58:04;;;;;;;12.18;8.20;;;-2.80;55.90;;;;;;5060497;28;20043;-57
2021/12/23 13:00:37;;;;;;;9.48;6.85;;;-2.80;55.80;;;;;;5062497;28;20031;-59
2021/12/23 13:03:03;;;;;;;8.38;6.95;;;-2.90;55.70;;;;;;5062159;28;20055;-59
2021/12/23 13:05:38;;;;;;;9.82;6.05;;;-2.90;55.80;;;;;;5064652;28;20739;-59
2021/12/23 13:08:25;;;;;;;15.57;10.63;;;-2.90;55.90;;;;;;5064954;28;20028;-58
2021/12/23 13:10:57;;;;;;;17.52;12.27;;;-2.90;55.80;;;;;;5066710;28;20079;-59
2021/12/23 13:13:36;;;;;;;17.98;12.55;;;-2.90;55.70;;;;;;5063076;28;20028;-55
2021/12/23 13:16:14;;;;;;;19.55;13.38;;;-2.90;55.50;;;;;;5060773;28;20032;-57
2021/12/23 13:18:40;;;;;;;17.52;12.40;;;-2.90;55.30;;;;;;5067661;28;20032;-57
2021/12/23 13:21:06;;;;;;;16.55;12.10;;;-2.90;55.40;;;;;;5054311;28;20063;-59
2021/12/23 13:23:40;;;;;;;16.08;11.73;;;-2.90;55.40;;;;;;5064266;28;20090;-58
2021/12/23 13:26:15;;;;;;;18.05;11.27;;;-2.90;55.30;;;;;;5066120;28;20182;-56
2021/12/23 13:28:42;;;;;;;17.50;11.27;;;-2.90;55.80;;;;;;5061288;28;20038;-58
2021/12/23 13:31:29;;;;;;;14.77;11.63;;;-2.90;55.30;;;;;;5064009;28;20066;-58
2021/12/23 13:33:58;;;;;;;17.10;11.85;;;-2.90;55.20;;;;;;5069242;28;20055;-58
2021/12/23 13:36:28;;;;;;;16.33;10.75;;;-2.90;55.30;;;;;;5059912;28;20032;-57
2021/12/23 13:39:06;;;;;;;18.02;11.70;;;-3.00;55.30;;;;;;5059961;28;20086;-56
2021/12/23 13:41:40;;;;;;;16.83;10.93;;;-3.00;55.20;;;;;;5049451;28;20419;-57
2021/12/23 13:44:15;;;;;;;16.38;11.45;;;-2.90;55.30;;;;;;5069627;28;20115;-57
2021/12/23 13:46:54;;;;;;;14.85;9.73;;;-2.90;55.80;;;;;;5069919;28;20024;-58
2021/12/23 13:49:19;;;;;;;17.95;11.60;;;-2.90;55.20;;;;;;5069591;28;20121;-58
2021/12/23 13:51:48;;;;;;;16.50;11.20;;;-2.90;55.20;;;;;;5064758;28;21092;-58
2021/12/23 13:54:16;;;;;;;17.90;12.38;;;-2.90;55.20;;;;;;5070095;28;20056;-57
2021/12/23 13:56:45;;;;;;;16.00;10.75;;;-2.90;55.20;;;;;;5064297;28;20547;-56
2021/12/23 13:59:18;;;;;;;18.27;11.98;;;-3.00;55.10;;;;;;5063806;28;20029;-58
2021/12/23 14:01:58;;;;;;;16.65;11.27;;;-3.00;55.20;;;;;;5062291;28;20506;-58
2021/12/23 14:04:29;;;;;;;15.15;10.82;;;-3.10;55.00;;;;;;5069548;28;20487;-57